createdAt,value
2019-04-25T00:01:18.323Z,92.20
2019-04-25T00:03:47.951Z,92.60
2019-04-25T00:06:17.628Z,92.80
2019-04-25T00:08:47.329Z,92.20
2019-04-25T00:11:17.036Z,92.90
2019-04-25T00:13:47.852Z,91.50
2019-04-25T00:16:18.357Z,91.40
2019-04-25T00:18:48.412Z,91.00
2019-04-25T00:21:32.047Z,92.00
2019-04-25T00:24:06.540Z,92.80
2019-04-25T00:26:40.952Z,91.90
2019-04-25T00:29:11.081Z,91.90
2019-04-25T00:31:41.105Z,91.60
2019-04-25T00:34:12.189Z,91.20
2019-04-25T00:36:43.471Z,92.40
2019-04-25T00:39:13.096Z,90.60
2019-04-25T00:41:45.147Z,91.50
2019-04-25T00:44:13.928Z,92.40
2019-04-25T00:46:47.796Z,92.30
2019-04-25T00:49:14.852Z,91.20
2019-04-25T00:51:44.553Z,91.50
2019-04-25T00:54:15.228Z,92.20
2019-04-25T00:56:46.977Z,93.00
2019-04-25T00:59:38.071Z,90.90
2019-04-25T01:02:16.852Z,91.10
2019-04-25T01:04:47.368Z,91.40
2019-04-25T01:07:17.141Z,93.20
2019-04-25T01:09:46.672Z,92.70
2019-04-25T01:12:17.889Z,90.80
2019-04-25T01:14:48.355Z,92.20
2019-04-25T01:17:18.128Z,93.10
2019-04-25T01:19:47.724Z,92.20
2019-04-25T01:22:17.480Z,92.70
2019-04-25T01:24:47.293Z,94.30
2019-04-25T01:27:16.892Z,94.40
2019-04-25T01:29:47.785Z,94.40
2019-04-25T01:32:21.500Z,93.20
2019-04-25T01:35:04.459Z,94.00
2019-04-25T01:37:47.481Z,94.40
2019-04-25T01:40:29.401Z,93.50
2019-04-25T01:43:23.286Z,92.90
2019-04-25T01:45:54.054Z,93.10
2019-04-25T01:48:24.530Z,92.40
2019-04-25T01:50:54.609Z,92.10
2019-04-25T01:53:25.042Z,93.30
2019-04-25T01:56:01.650Z,92.60
2019-04-25T01:58:25.816Z,91.30
2019-04-25T02:00:56.400Z,92.60
2019-04-25T02:03:27.371Z,92.50
2019-04-25T02:05:57.340Z,93.00
2019-04-25T02:08:27.056Z,92.40
2019-04-25T02:11:17.680Z,92.70
2019-04-25T02:13:47.219Z,92.20
2019-04-25T02:16:16.844Z,92.90
2019-04-25T02:18:46.484Z,94.10
2019-04-25T02:21:16.112Z,94.90
2019-04-25T02:23:45.851Z,95.10
2019-04-25T02:26:18.251Z,93.80
2019-04-25T02:28:46.676Z,93.40
2019-04-25T02:31:18.371Z,93.20
2019-04-25T02:33:47.531Z,92.70
2019-04-25T02:36:17.133Z,93.00
2019-04-25T02:38:46.666Z,93.70
2019-04-25T02:41:16.391Z,93.40
2019-04-25T02:43:45.952Z,95.00
2019-04-25T02:46:29.528Z,95.40
2019-04-25T02:49:29.918Z,94.80
2019-04-25T02:51:56.153Z,94.80
2019-04-25T02:54:24.774Z,95.30
2019-04-25T02:56:55.894Z,95.90
2019-04-25T02:59:25.593Z,95.70
2019-04-25T03:01:56.972Z,95.10
2019-04-25T03:04:26.625Z,95.10
2019-04-25T03:06:58.380Z,93.40
2019-04-25T03:09:28.203Z,95.30
2019-04-25T03:11:58.745Z,95.90
2019-04-25T03:14:29.057Z,96.20
2019-04-25T03:17:00.272Z,95.40
2019-04-25T03:20:08.075Z,96.40
2019-04-25T03:22:35.562Z,95.60
2019-04-25T03:25:10.026Z,95.90
2019-04-25T03:27:37.151Z,95.70
2019-04-25T03:30:11.813Z,95.30
2019-04-25T03:32:39.558Z,96.10
2019-04-25T03:35:09.373Z,96.20
2019-04-25T03:37:38.945Z,96.10
2019-04-25T03:40:09.703Z,96.30
2019-04-25T03:42:39.387Z,96.80
2019-04-25T03:45:09.228Z,96.40
2019-04-25T03:47:39.833Z,97.00
2019-04-25T03:50:09.857Z,97.30
2019-04-25T03:52:39.530Z,97.20
2019-04-25T03:55:09.153Z,97.20
2019-04-25T03:57:38.720Z,96.90
2019-04-25T04:00:08.749Z,97.00
2019-04-25T04:02:38.532Z,96.40
2019-04-25T04:05:09.523Z,96.40
2019-04-25T04:07:39.174Z,96.30
2019-04-25T04:10:08.893Z,96.80
2019-04-25T04:12:40.013Z,96.80
2019-04-25T04:15:10.726Z,96.20
2019-04-25T04:17:50.891Z,95.30
2019-04-25T04:20:48.592Z,95.90
2019-04-25T04:23:37.314Z,95.60
2019-04-25T04:26:07.438Z,95.70
2019-04-25T04:28:37.100Z,95.70
2019-04-25T04:31:06.684Z,95.20
2019-04-25T04:33:36.263Z,95.90
2019-04-25T04:36:07.338Z,95.90
2019-04-25T04:38:37.198Z,95.20
2019-04-25T04:41:07.973Z,95.90
2019-04-25T04:43:37.830Z,94.90
2019-04-25T04:46:08.564Z,95.70
2019-04-25T04:48:38.187Z,95.50
2019-04-25T04:51:08.944Z,95.60
2019-04-25T04:53:38.590Z,95.50
2019-04-25T04:56:09.549Z,95.90
2019-04-25T04:58:39.170Z,95.40
2019-04-25T05:01:08.741Z,96.30
2019-04-25T05:03:44.733Z,96.20
2019-04-25T05:06:24.066Z,96.30
2019-04-25T05:08:58.895Z,96.00
2019-04-25T05:11:28.465Z,96.80
2019-04-25T05:13:58.053Z,96.80
2019-04-25T05:16:27.607Z,96.40
2019-04-25T05:18:57.204Z,96.60
2019-04-25T05:21:26.751Z,96.10
2019-04-25T05:23:56.338Z,97.20
2019-04-25T05:26:25.902Z,96.90
2019-04-25T05:28:55.417Z,96.90
2019-04-25T05:31:37.696Z,96.80
2019-04-25T05:34:07.232Z,96.50
2019-04-25T05:36:39.932Z,96.10
2019-04-25T05:39:10.364Z,96.80
2019-04-25T05:41:45.752Z,97.20
2019-04-25T05:44:16.105Z,96.90
2019-04-25T05:46:46.428Z,97.20
2019-04-25T05:49:16.056Z,96.50
2019-04-25T05:51:45.616Z,97.50
2019-04-25T05:54:16.528Z,97.50
2019-04-25T05:56:46.256Z,97.60
2019-04-25T05:59:15.833Z,97.80
2019-04-25T06:01:46.373Z,97.20
2019-04-25T06:04:17.804Z,96.80
2019-04-25T06:06:47.265Z,96.70
2019-04-25T06:09:28.087Z,96.10
2019-04-25T06:12:06.852Z,96.00
2019-04-25T06:14:36.465Z,94.70
2019-04-25T06:17:09.305Z,95.70
2019-04-25T06:19:48.468Z,95.20
2019-04-25T06:22:24.378Z,93.50
2019-04-25T06:24:59.029Z,94.20
2019-04-25T06:27:35.288Z,93.50
2019-04-25T06:30:18.354Z,92.70
2019-04-25T06:32:47.996Z,93.40
2019-04-25T06:35:17.645Z,93.60
2019-04-25T06:37:47.230Z,93.00
2019-04-25T06:40:19.689Z,91.70
2019-04-25T06:42:50.132Z,92.60
2019-04-25T06:45:38.906Z,91.90
2019-04-25T06:48:20.342Z,91.30
2019-04-25T06:50:50.794Z,90.00
2019-04-25T06:53:20.405Z,90.60
2019-04-25T06:55:50.965Z,90.50
2019-04-25T06:58:21.409Z,90.00
2019-04-25T07:00:58.896Z,90.00
2019-04-25T07:03:26.035Z,90.40
2019-04-25T07:05:55.908Z,90.80
2019-04-25T07:08:26.678Z,90.40
2019-04-25T07:10:56.549Z,90.20
2019-04-25T07:13:26.988Z,90.50
2019-04-25T07:15:56.746Z,89.80
2019-04-25T07:18:35.490Z,89.80
2019-04-25T07:21:07.442Z,89.60
2019-04-25T07:23:38.251Z,89.80
2019-04-25T07:26:14.608Z,89.70
2019-04-25T07:29:13.439Z,88.20
2019-04-25T07:31:55.160Z,89.00
2019-04-25T07:34:26.543Z,88.80
2019-04-25T07:36:57.003Z,89.70
2019-04-25T07:39:27.419Z,89.70
2019-04-25T07:41:57.150Z,88.40
2019-04-25T07:44:37.962Z,85.70
2019-04-25T07:46:57.985Z,84.30
2019-04-25T07:49:28.509Z,85.00
2019-04-25T07:51:58.153Z,85.70
2019-04-25T07:54:28.815Z,85.30
2019-04-25T07:56:58.640Z,84.80
2019-04-25T07:59:29.212Z,83.50
2019-04-25T08:01:58.808Z,85.10
2019-04-25T08:04:29.044Z,84.10
2019-04-25T08:06:58.656Z,82.80
2019-04-25T08:09:29.400Z,81.80
2019-04-25T08:11:59.255Z,80.20
2019-04-25T08:14:35.282Z,79.70
2019-04-25T08:17:05.606Z,80.40
2019-04-25T08:19:37.167Z,76.80
2019-04-25T08:22:06.901Z,74.30
2019-04-25T08:24:37.596Z,74.40
2019-04-25T08:27:07.330Z,74.50
2019-04-25T08:29:39.617Z,75.50
2019-04-25T08:32:09.503Z,74.60
2019-04-25T08:34:39.089Z,76.20
2019-04-25T08:37:17.894Z,75.20
2019-04-25T08:39:41.302Z,74.10
2019-04-25T08:42:14.680Z,70.40
2019-04-25T08:44:48.367Z,69.70
2019-04-25T08:47:18.260Z,69.50
2019-04-25T08:49:53.873Z,66.90
2019-04-25T08:52:24.386Z,67.60
2019-04-25T08:55:04.988Z,67.40
2019-04-25T08:58:09.155Z,65.00
2019-04-25T09:01:01.987Z,67.10
2019-04-25T09:03:40.136Z,65.40
2019-04-25T09:06:10.552Z,67.50
2019-04-25T09:08:41.042Z,61.90
2019-04-25T09:11:10.756Z,63.00
2019-04-25T09:13:40.954Z,63.30
2019-04-25T09:16:10.758Z,62.30
2019-04-25T09:18:40.323Z,63.60
2019-04-25T09:21:09.884Z,63.10
2019-04-25T09:23:39.669Z,60.40
2019-04-25T09:26:09.398Z,61.00
2019-04-25T09:28:40.779Z,62.30
2019-04-25T09:31:10.389Z,60.90
2019-04-25T09:33:41.206Z,60.20
2019-04-25T09:36:11.013Z,57.50
2019-04-25T09:38:40.986Z,58.50
2019-04-25T09:41:10.624Z,61.40
2019-04-25T09:43:40.348Z,58.60
2019-04-25T09:46:24.274Z,56.90
2019-04-25T09:49:16.193Z,54.30
2019-04-25T09:51:53.340Z,54.20
2019-04-25T09:54:57.394Z,53.50
2019-04-25T09:57:38.988Z,47.90
2019-04-25T10:00:15.533Z,58.30
2019-04-25T10:02:45.469Z,51.40
2019-04-25T10:05:21.794Z,48.60
2019-04-25T10:07:53.317Z,48.40
2019-04-25T10:10:24.121Z,54.80
2019-04-25T10:12:54.858Z,47.40
2019-04-25T10:15:56.127Z,50.70
2019-04-25T10:18:28.564Z,51.90
2019-04-25T10:20:58.326Z,49.00
2019-04-25T10:23:28.358Z,47.10
2019-04-25T10:26:03.858Z,50.00
2019-04-25T10:28:34.165Z,49.70
2019-04-25T10:31:04.091Z,48.90
2019-04-25T10:33:34.282Z,47.40
2019-04-25T10:36:30.746Z,47.20
2019-04-25T10:39:58.253Z,44.20
2019-04-25T10:45:42.296Z,45.50
2019-04-25T10:48:15.315Z,44.30
2019-04-25T10:50:47.052Z,44.30
2019-04-25T10:53:17.109Z,42.10
2019-04-25T10:55:50.231Z,43.20
2019-04-25T10:58:20.127Z,42.00
2019-04-25T11:00:54.709Z,40.70
2019-04-25T11:03:51.691Z,41.70
2019-04-25T11:06:27.064Z,41.10
2019-04-25T11:09:03.465Z,43.20
2019-04-25T11:11:35.840Z,43.30
2019-04-25T11:14:07.550Z,41.60
2019-04-25T11:16:37.456Z,37.30
2019-04-25T11:19:07.743Z,35.00
2019-04-25T11:21:37.593Z,34.20
2019-04-25T11:24:07.784Z,30.90
2019-04-25T11:26:37.400Z,33.40
2019-04-25T11:29:07.572Z,36.30
2019-04-25T11:31:43.817Z,36.80
2019-04-25T11:34:14.814Z,34.00
2019-04-25T11:36:45.732Z,35.30
2019-04-25T11:39:34.885Z,35.70
2019-04-25T11:42:24.326Z,37.20
2019-04-25T11:44:57.106Z,36.60
2019-04-25T11:47:27.041Z,32.00
2019-04-25T11:49:57.062Z,36.70
2019-04-25T11:52:29.658Z,32.00
2019-04-25T11:54:58.184Z,32.40
2019-04-25T11:57:28.052Z,32.50
2019-04-25T12:00:01.133Z,32.70
2019-04-25T12:02:34.255Z,33.60
2019-04-25T12:05:04.344Z,31.50
2019-04-25T12:07:34.354Z,30.00
2019-04-25T12:10:05.200Z,30.60
2019-04-25T12:12:40.159Z,29.90
2019-04-25T12:15:10.798Z,30.20
2019-04-25T12:17:40.726Z,30.80
2019-04-25T12:21:14.112Z,30.80
2019-04-25T12:24:20.161Z,30.70
2019-04-25T12:43:59.779Z,28.70
2019-04-25T12:47:30.778Z,28.40
2019-04-25T12:51:17.573Z,30.80
2019-04-25T12:54:58.024Z,33.00
2019-04-25T12:57:44.422Z,29.40
2019-04-25T13:00:51.204Z,30.60
2019-04-25T13:03:24.186Z,30.40
2019-04-25T13:05:54.147Z,30.10
2019-04-25T13:08:24.307Z,29.40
2019-04-25T13:10:54.445Z,29.10
2019-04-25T13:13:24.731Z,28.60
2019-04-25T13:15:56.817Z,28.70
2019-04-25T13:18:26.565Z,29.60
2019-04-25T13:20:57.253Z,27.50
2019-04-25T13:23:27.864Z,26.40
2019-04-25T13:26:00.162Z,25.10
2019-04-25T13:28:52.027Z,24.90
2019-04-25T13:31:39.672Z,24.90
2019-04-25T13:34:14.187Z,27.70
2019-04-25T13:36:44.377Z,24.80
2019-04-25T13:39:17.045Z,24.60
2019-04-25T13:41:46.824Z,24.40
2019-04-25T13:44:16.416Z,24.30
2019-04-25T13:46:46.138Z,23.00
2019-04-25T13:49:15.840Z,25.20
2019-04-25T13:51:45.559Z,24.40
2019-04-25T13:54:16.193Z,24.10
2019-04-25T13:56:46.224Z,23.60
2019-04-25T13:59:27.038Z,23.00
2019-04-25T14:02:01.056Z,22.60
2019-04-25T14:06:15.408Z,21.80
2019-04-25T14:16:25.378Z,24.70
2019-04-25T14:19:59.861Z,23.90
2019-04-25T14:22:53.759Z,24.30
2019-04-25T14:25:35.500Z,25.00
2019-04-25T14:33:05.447Z,24.10
2019-04-25T14:36:35.000Z,22.90
2019-04-25T14:43:41.102Z,23.40
2019-04-25T14:45:56.186Z,22.70
2019-04-25T14:48:25.779Z,21.90
2019-04-25T14:50:55.329Z,24.70
2019-04-25T14:53:25.761Z,23.50
2019-04-25T14:56:06.714Z,22.10
2019-04-25T14:58:38.083Z,22.00
2019-04-25T15:01:08.000Z,23.50
2019-04-25T15:03:37.628Z,20.90
2019-04-25T15:06:07.201Z,24.00
2019-04-25T15:08:36.881Z,22.20
2019-04-25T15:11:06.675Z,21.60
2019-04-25T15:13:36.336Z,22.10
2019-04-25T15:16:06.070Z,23.40
2019-04-25T15:18:46.580Z,22.40
2019-04-25T15:21:08.150Z,21.80
2019-04-25T15:23:37.727Z,21.10
2019-04-25T15:26:09.142Z,20.50
2019-04-25T15:28:39.347Z,19.90
2019-04-25T15:31:12.052Z,21.30
2019-04-25T15:33:41.817Z,22.00
2019-04-25T15:36:37.678Z,22.30
2019-04-25T15:39:39.714Z,22.10
2019-04-25T15:42:18.279Z,22.40
2019-04-25T15:45:00.485Z,23.40
2019-04-25T15:47:30.649Z,23.60
2019-04-25T15:50:00.217Z,23.80
2019-04-25T15:52:29.793Z,25.00
2019-04-25T15:55:07.075Z,25.00
2019-04-25T15:57:30.592Z,24.20
2019-04-25T16:00:00.272Z,26.00
2019-04-25T16:02:30.263Z,23.90
2019-04-25T16:04:59.970Z,24.00
2019-04-25T16:07:29.650Z,22.40
2019-04-25T16:09:59.249Z,23.00
2019-04-25T16:12:30.756Z,23.10
2019-04-25T16:15:00.481Z,23.00
2019-04-25T16:17:30.703Z,24.30
2019-04-25T16:20:00.464Z,23.90
2019-04-25T16:22:30.287Z,23.20
2019-04-25T16:25:00.069Z,23.90
2019-04-25T16:27:30.343Z,23.50
2019-04-25T16:30:00.084Z,26.20
2019-04-25T16:32:30.412Z,23.60
2019-04-25T16:35:00.049Z,25.40
2019-04-25T16:37:30.355Z,25.40
2019-04-25T16:39:59.928Z,25.30
2019-04-25T16:42:30.375Z,26.70
2019-04-25T16:45:00.083Z,25.30
2019-04-25T16:47:31.138Z,27.20
2019-04-25T16:50:00.700Z,27.20
2019-04-25T16:52:31.667Z,27.70
2019-04-25T16:55:01.240Z,28.60
2019-04-25T16:57:32.747Z,29.70
2019-04-25T17:00:02.410Z,29.50
2019-04-25T17:02:38.287Z,29.70
2019-04-25T17:05:08.081Z,30.60
2019-04-25T17:07:38.477Z,32.50
2019-04-25T17:10:08.337Z,33.20
2019-04-25T17:12:38.526Z,32.70
2019-04-25T17:15:34.184Z,33.70
2019-04-25T17:18:11.003Z,33.40
2019-04-25T17:20:53.025Z,33.50
2019-04-25T17:23:22.751Z,34.00
2019-04-25T17:25:52.291Z,34.20
2019-04-25T17:28:21.827Z,34.20
2019-04-25T17:30:55.830Z,34.40
2019-04-25T17:33:47.106Z,35.00
2019-04-25T17:36:20.912Z,36.60
2019-04-25T17:38:54.316Z,37.10
2019-04-25T17:41:23.957Z,36.90
2019-04-25T17:43:53.524Z,37.80
2019-04-25T17:46:23.664Z,38.20
2019-04-25T17:48:53.243Z,38.30
2019-04-25T17:51:22.767Z,39.60
2019-04-25T17:53:52.303Z,40.10
2019-04-25T17:56:21.940Z,40.40
2019-04-25T17:58:51.549Z,40.30
2019-04-25T18:01:23.669Z,40.70
2019-04-25T18:03:53.297Z,41.50
2019-04-25T18:06:22.847Z,42.00
2019-04-25T18:08:52.462Z,42.10
2019-04-25T18:11:22.081Z,42.70
2019-04-25T18:13:51.627Z,43.10
2019-04-25T18:16:34.689Z,42.60
2019-04-25T18:19:14.478Z,42.90
2019-04-25T18:21:44.961Z,43.10
2019-04-25T18:24:36.796Z,43.40
2019-04-25T18:27:25.372Z,43.40
2019-04-25T18:29:54.899Z,43.80
2019-04-25T18:32:26.083Z,44.00
2019-04-25T18:34:59.980Z,44.70
2019-04-25T18:38:03.869Z,44.60
2019-04-25T18:40:52.508Z,45.10
2019-04-25T18:43:30.491Z,44.40
2019-04-25T18:46:04.739Z,44.00
2019-04-25T18:48:34.309Z,43.30
2019-04-25T18:51:03.949Z,43.40
2019-04-25T18:54:01.749Z,43.10
2019-04-25T18:56:37.549Z,42.90
2019-04-25T18:59:39.545Z,43.30
2019-04-25T19:02:28.645Z,43.70
2019-04-25T19:05:16.080Z,43.90
2019-04-25T19:07:45.732Z,43.60
2019-04-25T19:10:15.614Z,44.20
2019-04-25T19:12:45.226Z,44.00
2019-04-25T19:15:14.919Z,44.70
2019-04-25T19:17:45.273Z,44.90
2019-04-25T19:20:15.085Z,45.00
2019-04-25T19:22:45.722Z,45.40
2019-04-25T19:25:16.552Z,45.60
2019-04-25T19:27:46.552Z,45.70
2019-04-25T19:30:18.074Z,46.00
2019-04-25T19:32:47.615Z,45.70
2019-04-25T19:35:17.223Z,46.60
2019-04-25T19:37:46.740Z,46.50
2019-04-25T19:40:38.503Z,47.60
2019-04-25T19:43:18.520Z,48.10
2019-04-25T19:45:48.992Z,48.00
2019-04-25T19:48:18.694Z,48.00
2019-04-25T19:50:48.285Z,47.80
2019-04-25T19:53:17.808Z,48.30
2019-04-25T19:55:47.597Z,48.30
2019-04-25T19:58:17.225Z,47.50
2019-04-25T20:00:48.630Z,47.60
2019-04-25T20:03:23.912Z,48.00
2019-04-25T20:06:27.921Z,48.30
2019-04-25T20:09:02.913Z,48.30
2019-04-25T20:11:47.119Z,48.30
2019-04-25T20:14:16.821Z,49.10
2019-04-25T20:16:47.563Z,49.20
2019-04-25T20:19:18.565Z,48.40
2019-04-25T20:21:48.149Z,49.10
2019-04-25T20:24:17.730Z,49.10
2019-04-25T20:26:48.299Z,49.30
2019-04-25T20:29:18.099Z,49.10
2019-04-25T20:31:50.623Z,49.30
2019-04-25T20:34:20.269Z,49.70
2019-04-25T20:36:50.011Z,49.80
2019-04-25T20:39:19.553Z,50.40
2019-04-25T20:41:49.743Z,49.90
2019-04-25T20:44:19.421Z,50.70
2019-04-25T20:46:49.117Z,50.70
2019-04-25T20:49:18.697Z,50.70
2019-04-25T20:51:48.480Z,51.30
2019-04-25T20:54:18.075Z,51.40
2019-04-25T20:56:48.181Z,51.30
2019-04-25T20:59:18.740Z,51.70
2019-04-25T21:01:49.618Z,51.20
2019-04-25T21:04:37.282Z,51.10
2019-04-25T21:07:06.849Z,50.80
2019-04-25T21:09:36.412Z,50.50
2019-04-25T21:12:06.577Z,50.60
2019-04-25T21:14:58.348Z,50.20
2019-04-25T21:17:54.170Z,49.60
2019-04-25T21:20:23.830Z,49.70
2019-04-25T21:22:53.810Z,50.00
2019-04-25T21:25:23.468Z,49.70
2019-04-25T21:27:53.007Z,50.20
2019-04-25T21:30:22.551Z,50.00
2019-04-25T21:32:55.799Z,50.50
2019-04-25T21:35:25.832Z,50.20
2019-04-25T21:37:55.519Z,50.80
2019-04-25T21:40:47.293Z,50.80
2019-04-25T21:43:21.468Z,51.10
2019-04-25T21:45:51.904Z,51.70
2019-04-25T21:48:22.402Z,52.00
2019-04-25T21:50:53.529Z,51.80
2019-04-25T21:53:23.168Z,51.70
2019-04-25T21:55:53.199Z,51.80
2019-04-25T21:58:23.810Z,51.00
2019-04-25T22:01:09.239Z,52.70
2019-04-25T22:03:40.430Z,51.90
2019-04-25T22:06:10.202Z,52.40
2019-04-25T22:08:40.036Z,52.50
2019-04-25T22:11:09.605Z,52.20
2019-04-25T22:13:39.473Z,52.40
2019-04-25T22:16:09.512Z,52.40
2019-04-25T22:18:39.526Z,52.80
2019-04-25T22:21:09.307Z,52.80
2019-04-25T22:23:39.435Z,53.30
2019-04-25T22:26:09.162Z,53.00
2019-04-25T22:28:39.106Z,53.50
2019-04-25T22:31:14.176Z,53.80
2019-04-25T22:33:55.550Z,54.20
2019-04-25T22:36:24.882Z,54.30
2019-04-25T22:39:13.164Z,54.80
2019-04-25T22:41:47.105Z,55.00
2019-04-25T22:44:17.934Z,54.90
2019-04-25T22:46:47.893Z,54.80
2019-04-25T22:49:17.532Z,55.00
2019-04-25T22:51:47.099Z,55.20
2019-04-25T22:54:17.128Z,55.20
2019-04-25T22:56:46.734Z,55.00
2019-04-25T22:59:16.634Z,55.10
2019-04-25T23:02:02.440Z,55.40
2019-04-25T23:04:39.868Z,55.70
2019-04-25T23:07:10.080Z,55.90
2019-04-25T23:09:40.816Z,55.80
2019-04-25T23:12:10.669Z,56.00
2019-04-25T23:14:40.484Z,56.20
2019-04-25T23:17:10.096Z,56.30
2019-04-25T23:19:39.649Z,56.40
2019-04-25T23:22:10.175Z,56.30
2019-04-25T23:24:44.205Z,56.60
2019-04-25T23:27:32.901Z,56.90
2019-04-25T23:30:03.899Z,57.20
2019-04-25T23:32:33.940Z,57.20
2019-04-25T23:35:05.697Z,57.40
2019-04-25T23:37:35.764Z,57.40
2019-04-25T23:40:06.637Z,57.50
2019-04-25T23:42:37.313Z,57.70
2019-04-25T23:45:08.071Z,57.50
2019-04-25T23:47:37.733Z,57.50
2019-04-25T23:50:08.565Z,57.30
2019-04-25T23:52:38.282Z,57.20
2019-04-25T23:55:08.360Z,57.10
2019-04-25T23:57:38.943Z,57.10
